createdAt,value
2023-03-24T00:01:58.231Z,13.95
2023-03-24T00:04:25.579Z,15.55
2023-03-24T00:06:54.206Z,14.45
2023-03-24T00:09:21.617Z,14.52
2023-03-24T00:11:48.863Z,14.80
2023-03-24T00:14:16.324Z,16.60
2023-03-24T00:16:43.759Z,15.73
2023-03-24T00:19:15.767Z,14.70
2023-03-24T00:21:44.397Z,15.05
2023-03-24T00:24:13.067Z,14.43
2023-03-24T00:26:41.610Z,13.85
2023-03-24T00:29:14.128Z,14.13
2023-03-24T00:31:43.437Z,14.57
2023-03-24T00:34:17.029Z,14.48
2023-03-24T00:36:44.441Z,13.93
2023-03-24T00:39:13.906Z,13.88
2023-03-24T00:41:45.197Z,15.25
2023-03-24T00:44:18.348Z,13.98
2023-03-24T00:46:55.539Z,12.95
2023-03-24T00:49:47.552Z,13.77
2023-03-24T00:52:34.093Z,13.45
2023-03-24T00:55:06.386Z,13.52
2023-03-24T00:57:36.730Z,13.13
2023-03-24T01:00:14.415Z,12.55
2023-03-24T01:02:41.747Z,13.23
2023-03-24T01:05:12.826Z,12.00
2023-03-24T01:07:43.469Z,11.93
2023-03-24T01:10:14.116Z,12.10
2023-03-24T01:12:42.069Z,11.90
2023-03-24T01:15:20.564Z,12.18
2023-03-24T01:17:55.897Z,12.00
2023-03-24T01:20:25.418Z,11.88
2023-03-24T01:22:53.177Z,11.65
2023-03-24T01:25:23.579Z,11.90
2023-03-24T01:27:52.471Z,10.90
2023-03-24T01:30:23.193Z,10.90
2023-03-24T01:32:52.268Z,11.73
2023-03-24T01:35:21.232Z,12.77
2023-03-24T01:37:48.667Z,11.90
2023-03-24T01:40:27.817Z,12.05
2023-03-24T01:42:55.566Z,11.07
2023-03-24T01:45:44.728Z,10.77
2023-03-24T01:48:34.562Z,10.77
2023-03-24T01:51:09.375Z,10.27
2023-03-24T01:53:40.665Z,10.93
2023-03-24T01:56:09.696Z,10.90
2023-03-24T01:58:46.237Z,11.25
2023-03-24T02:01:22.103Z,10.70
2023-03-24T02:04:07.146Z,10.43
2023-03-24T02:06:41.497Z,11.25
2023-03-24T02:09:10.649Z,10.77
2023-03-24T02:11:39.844Z,10.38
2023-03-24T02:14:09.090Z,11.52
2023-03-24T02:17:04.467Z,11.27
2023-03-24T02:19:44.936Z,11.63
2023-03-24T02:22:31.706Z,11.02
2023-03-24T02:25:14.185Z,12.13
2023-03-24T02:27:45.536Z,11.90
2023-03-24T02:30:53.248Z,10.90
2023-03-24T02:33:32.118Z,11.88
2023-03-24T02:36:05.856Z,11.38
2023-03-24T02:39:24.913Z,11.00
2023-03-24T02:42:16.609Z,12.00
2023-03-24T02:44:53.837Z,10.77
2023-03-24T02:47:49.321Z,11.95
2023-03-24T02:50:45.277Z,11.93
2023-03-24T02:53:19.570Z,12.63
2023-03-24T02:56:34.590Z,11.32
2023-03-24T02:59:19.819Z,12.15
2023-03-24T03:02:08.295Z,12.88
2023-03-24T03:04:50.310Z,12.40
2023-03-24T03:07:22.664Z,12.55
2023-03-24T03:10:19.616Z,11.00
2023-03-24T03:12:51.622Z,11.35
2023-03-24T03:15:28.230Z,12.40
2023-03-24T03:18:04.471Z,11.95
2023-03-24T03:20:38.670Z,13.00
2023-03-24T03:23:13.547Z,11.30
2023-03-24T03:25:57.530Z,11.80
2023-03-24T03:28:30.746Z,11.15
2023-03-24T03:31:02.006Z,10.68
2023-03-24T03:33:48.700Z,11.70
2023-03-24T03:36:41.270Z,10.60
2023-03-24T03:39:33.761Z,11.70
2023-03-24T03:42:06.746Z,10.98
2023-03-24T03:44:36.208Z,10.75
2023-03-24T03:47:06.669Z,11.27
2023-03-24T03:49:40.759Z,10.85
2023-03-24T03:52:08.785Z,11.90
2023-03-24T03:54:37.704Z,12.32
2023-03-24T03:57:05.404Z,11.25
2023-03-24T03:59:40.178Z,11.82
2023-03-24T04:02:53.431Z,11.45
2023-03-24T04:05:37.918Z,11.40
2023-03-24T04:08:31.559Z,11.20
2023-03-24T04:11:42.014Z,12.00
2023-03-24T04:14:57.176Z,10.57
2023-03-24T04:17:55.710Z,10.15
2023-03-24T04:20:52.824Z,10.23
2023-03-24T04:23:46.549Z,10.95
2023-03-24T04:27:01.747Z,10.98
2023-03-24T04:29:54.751Z,10.10
2023-03-24T04:32:30.601Z,10.68
2023-03-24T04:35:03.028Z,11.27
2023-03-24T04:37:50.111Z,11.68
2023-03-24T04:40:24.789Z,11.25
2023-03-24T04:42:54.811Z,12.80
2023-03-24T04:45:30.531Z,10.98
2023-03-24T04:48:12.760Z,11.10
2023-03-24T04:50:57.733Z,12.32
2023-03-24T04:53:27.936Z,11.43
2023-03-24T04:56:07.539Z,12.65
2023-03-24T04:58:53.809Z,13.98
2023-03-24T05:01:21.788Z,14.77
2023-03-24T05:04:09.510Z,13.00
2023-03-24T05:06:38.980Z,14.15
2023-03-24T05:09:09.261Z,13.38
2023-03-24T05:11:36.712Z,13.50
2023-03-24T05:14:08.664Z,14.55
2023-03-24T05:16:39.490Z,13.93
2023-03-24T05:19:07.847Z,15.63
2023-03-24T05:21:36.045Z,16.60
2023-03-24T05:24:07.983Z,16.90
2023-03-24T05:26:38.760Z,17.83
2023-03-24T05:29:14.653Z,17.45
2023-03-24T05:31:42.194Z,16.40
2023-03-24T05:34:11.306Z,15.48
2023-03-24T05:36:53.294Z,14.80
2023-03-24T05:39:22.696Z,14.57
2023-03-24T05:42:00.603Z,14.63
2023-03-24T05:44:27.962Z,14.85
2023-03-24T05:47:20.504Z,14.30
2023-03-24T05:49:47.859Z,13.65
2023-03-24T05:52:23.336Z,14.40
2023-03-24T05:54:54.962Z,13.82
2023-03-24T05:57:26.365Z,14.80
2023-03-24T06:00:18.020Z,13.55
2023-03-24T06:02:57.477Z,13.88
2023-03-24T06:05:43.814Z,14.77
2023-03-24T06:34:25.559Z,15.25
2023-03-24T06:37:14.309Z,14.30
2023-03-24T06:39:42.109Z,13.50
2023-03-24T06:42:11.092Z,11.48
2023-03-24T06:44:41.200Z,11.68
2023-03-24T06:47:08.704Z,11.93
2023-03-24T06:49:37.367Z,10.48
2023-03-24T06:52:05.248Z,10.35
2023-03-24T06:54:41.612Z,12.27
2023-03-24T06:57:09.506Z,11.43
2023-03-24T07:00:10.470Z,11.10
2023-03-24T07:02:52.297Z,11.10
2023-03-24T07:05:20.705Z,11.60
2023-03-24T07:10:37.908Z,11.98
2023-03-24T07:13:06.170Z,11.48
2023-03-24T07:15:35.760Z,9.70
2023-03-24T07:18:03.924Z,10.35
2023-03-24T07:20:46.473Z,10.57
2023-03-24T07:23:16.300Z,11.55
2023-03-24T07:25:57.284Z,10.77
2023-03-24T07:28:45.771Z,10.45
2023-03-24T07:31:15.032Z,8.88
2023-03-24T07:33:44.015Z,9.85
2023-03-24T07:36:17.520Z,9.07
2023-03-24T07:38:44.823Z,10.40
2023-03-24T07:41:18.718Z,11.07
2023-03-24T07:43:52.004Z,9.70
2023-03-24T07:46:28.835Z,9.65
2023-03-24T07:49:03.259Z,9.55
2023-03-24T07:51:38.544Z,7.30
2023-03-24T07:54:28.711Z,8.68
2023-03-24T07:56:57.005Z,8.32
2023-03-24T07:59:30.180Z,8.73
2023-03-24T08:02:22.264Z,8.60
2023-03-24T08:05:14.520Z,8.45
2023-03-24T08:07:53.821Z,8.43
2023-03-24T08:10:24.397Z,9.38
2023-03-24T08:12:52.113Z,8.52
2023-03-24T08:15:22.443Z,8.45
2023-03-24T08:17:52.959Z,7.00
2023-03-24T08:20:25.143Z,8.35
2023-03-24T08:22:54.685Z,6.95
2023-03-24T08:25:26.208Z,6.35
2023-03-24T08:27:55.997Z,5.50
2023-03-24T08:30:31.120Z,4.90
2023-03-24T08:33:01.202Z,4.72
2023-03-24T08:35:34.009Z,3.97
2023-03-24T08:38:06.926Z,5.07
2023-03-24T08:40:37.083Z,3.70
2023-03-24T08:43:08.792Z,4.40
2023-03-24T08:45:36.620Z,5.73
2023-03-24T08:48:06.651Z,6.30
2023-03-24T08:50:37.445Z,5.80
2023-03-24T08:53:05.289Z,5.90
2023-03-24T08:55:33.110Z,6.38
2023-03-24T08:58:01.307Z,5.68
2023-03-24T09:00:29.215Z,5.57
2023-03-24T09:03:03.139Z,5.93
2023-03-24T09:05:43.991Z,5.72
2023-03-24T09:08:13.608Z,5.93
2023-03-24T09:10:42.608Z,5.50
2023-03-24T09:13:10.617Z,6.63
2023-03-24T09:15:40.778Z,6.63
2023-03-24T09:18:08.348Z,5.03
2023-03-24T09:20:36.054Z,5.07
2023-03-24T09:23:03.343Z,4.65
2023-03-24T09:25:30.630Z,5.40
2023-03-24T09:27:59.871Z,5.40
2023-03-24T09:30:29.257Z,5.70
2023-03-24T09:32:59.166Z,4.85
2023-03-24T09:35:27.718Z,6.00
2023-03-24T09:37:56.839Z,5.47
2023-03-24T09:40:25.731Z,4.97
2023-03-24T09:43:05.713Z,5.05
2023-03-24T09:45:50.332Z,5.13
2023-03-24T09:48:40.025Z,4.82
2023-03-24T09:51:28.506Z,4.75
2023-03-24T09:54:01.464Z,4.65
2023-03-24T09:56:30.075Z,4.93
2023-03-24T09:59:14.133Z,4.00
2023-03-24T10:01:41.462Z,3.53
2023-03-24T10:04:15.832Z,3.88
2023-03-24T10:06:44.034Z,4.90
2023-03-24T10:09:34.671Z,3.42
2023-03-24T10:12:06.067Z,3.33
2023-03-24T10:14:39.644Z,2.88
2023-03-24T10:17:38.152Z,2.58
2023-03-24T10:20:21.276Z,2.83
2023-03-24T10:23:01.512Z,2.53
2023-03-24T10:26:11.035Z,2.38
2023-03-24T10:28:50.603Z,2.72
2023-03-24T10:31:21.816Z,3.28
2023-03-24T10:33:49.053Z,2.72
2023-03-24T10:36:25.249Z,3.30
2023-03-24T10:38:52.752Z,3.10
2023-03-24T10:41:21.397Z,3.10
2023-03-24T10:43:51.865Z,2.42
2023-03-24T10:46:23.060Z,2.40
2023-03-24T10:48:53.070Z,2.97
2023-03-24T10:51:33.325Z,3.25
2023-03-24T10:54:22.228Z,3.20
2023-03-24T10:56:51.344Z,3.20
2023-03-24T10:59:20.503Z,2.80
2023-03-24T11:01:48.411Z,2.58
2023-03-24T11:04:20.221Z,2.65
2023-03-24T11:07:21.809Z,2.70
2023-03-24T11:10:10.255Z,2.80
2023-03-24T11:12:43.058Z,2.60
2023-03-24T11:15:23.952Z,2.53
2023-03-24T11:18:11.461Z,1.80
2023-03-24T11:20:49.427Z,1.67
2023-03-24T11:23:31.967Z,2.47
2023-03-24T11:28:41.928Z,1.38
2023-03-24T11:31:19.309Z,1.00
2023-03-24T11:33:59.101Z,1.30
2023-03-24T11:36:34.014Z,1.20
2023-03-24T11:39:04.247Z,0.80
2023-03-24T11:41:31.631Z,0.88
2023-03-24T11:44:24.606Z,1.08
2023-03-24T11:47:03.508Z,0.80
2023-03-24T11:49:40.283Z,1.25
2023-03-24T11:52:20.022Z,1.05
2023-03-24T11:54:47.216Z,0.63
2023-03-24T11:57:17.802Z,1.02
2023-03-24T12:00:02.306Z,0.90
2023-03-24T12:03:08.181Z,0.80
2023-03-24T12:06:22.733Z,1.02
2023-03-24T12:09:19.420Z,0.85
2023-03-24T12:12:19.166Z,0.90
2023-03-24T12:15:14.414Z,0.73
2023-03-24T12:17:57.252Z,0.80
2023-03-24T12:20:47.486Z,0.70
2023-03-24T12:23:26.071Z,0.70
2023-03-24T12:26:00.778Z,0.70
2023-03-24T12:29:06.068Z,1.10
2023-03-24T12:32:01.080Z,0.47
2023-03-24T12:34:57.952Z,0.60
2023-03-24T12:37:43.419Z,0.70
2023-03-24T12:40:32.633Z,0.50
2023-03-24T12:43:36.372Z,0.65
2023-03-24T12:46:46.817Z,0.47
2023-03-24T12:49:40.519Z,0.70
2023-03-24T12:52:22.373Z,0.60
2023-03-24T12:54:52.830Z,0.60
2023-03-24T12:57:25.811Z,0.50
2023-03-24T13:00:11.454Z,0.80
2023-03-24T13:02:50.690Z,0.80
2023-03-24T13:05:27.708Z,1.23
2023-03-24T13:07:59.323Z,0.60
2023-03-24T13:10:34.060Z,0.88
2023-03-24T13:13:01.234Z,0.90
2023-03-24T13:15:44.511Z,0.82
2023-03-24T13:18:11.727Z,0.70
2023-03-24T13:20:56.060Z,0.88
2023-03-24T13:24:01.254Z,0.60
2023-03-24T13:26:51.175Z,2.05
2023-03-24T13:29:48.430Z,0.93
2023-03-24T13:32:25.486Z,0.98
2023-03-24T13:35:13.725Z,0.80
2023-03-24T13:37:57.518Z,0.77
2023-03-24T13:40:30.446Z,0.70
2023-03-24T13:42:59.912Z,0.73
2023-03-24T13:45:41.162Z,0.77
2023-03-24T13:48:11.475Z,0.70
2023-03-24T13:51:18.815Z,1.00
2023-03-24T13:53:51.726Z,1.40
2023-03-24T13:56:51.000Z,0.60
2023-03-24T13:59:18.109Z,0.88
2023-03-24T14:02:28.637Z,0.60
2023-03-24T14:04:58.620Z,0.50
2023-03-24T14:07:41.215Z,1.15
2023-03-24T14:10:19.114Z,0.45
2023-03-24T14:12:58.735Z,0.60
2023-03-24T14:15:28.846Z,0.60
2023-03-24T14:18:23.831Z,0.70
2023-03-24T14:20:57.439Z,0.70
2023-03-24T14:23:43.737Z,0.63
2023-03-24T14:26:37.333Z,0.52
2023-03-24T14:29:04.728Z,0.65
2023-03-24T14:31:34.540Z,0.63
2023-03-24T14:34:25.994Z,0.70
2023-03-24T14:37:03.713Z,0.50
2023-03-24T14:39:43.123Z,0.68
2023-03-24T14:42:36.290Z,0.40
2023-03-24T14:45:51.907Z,0.55
2023-03-24T14:48:29.266Z,0.40
2023-03-24T14:51:02.115Z,0.73
2023-03-24T14:53:29.540Z,0.60
2023-03-24T14:55:57.955Z,0.93
2023-03-24T14:58:33.025Z,0.70
2023-03-24T15:01:07.753Z,0.85
2023-03-24T15:04:00.783Z,0.80
2023-03-24T15:08:59.367Z,0.60
2023-03-24T15:11:30.281Z,0.82
2023-03-24T15:13:59.265Z,0.63
2023-03-24T15:16:35.782Z,0.77
2023-03-24T15:19:22.420Z,0.90
2023-03-24T15:21:56.708Z,0.70
2023-03-24T15:24:24.016Z,1.15
2023-03-24T15:27:09.413Z,1.05
2023-03-24T15:29:39.798Z,0.95
2023-03-24T15:32:11.904Z,0.70
2023-03-24T15:34:47.981Z,1.13
2023-03-24T15:37:41.319Z,0.90
2023-03-24T15:40:31.735Z,1.40
2023-03-24T15:43:01.680Z,1.20
2023-03-24T15:45:37.444Z,0.70
2023-03-24T15:48:14.886Z,0.80
2023-03-24T15:50:55.927Z,0.95
2023-03-24T15:53:33.750Z,1.42
2023-03-24T15:56:12.900Z,0.70
2023-03-24T15:59:09.672Z,0.90
2023-03-24T16:01:38.609Z,1.23
2023-03-24T16:04:17.777Z,1.20
2023-03-24T16:06:53.610Z,1.08
2023-03-24T16:09:27.887Z,1.13
2023-03-24T16:11:55.736Z,1.42
2023-03-24T16:14:25.907Z,1.05
2023-03-24T16:16:58.499Z,1.17
2023-03-24T16:19:26.563Z,1.17
2023-03-24T16:21:55.013Z,1.20
2023-03-24T16:24:22.663Z,1.30
2023-03-24T16:26:50.443Z,1.40
2023-03-24T16:29:23.595Z,1.70
2023-03-24T16:31:53.286Z,1.67
2023-03-24T16:34:21.931Z,2.00
2023-03-24T16:36:50.871Z,2.10
2023-03-24T16:39:26.797Z,1.67
2023-03-24T16:41:54.749Z,1.85
2023-03-24T16:44:22.182Z,1.70
2023-03-24T16:46:51.927Z,1.70
2023-03-24T16:49:20.014Z,1.80
2023-03-24T16:51:48.122Z,2.83
2023-03-24T16:54:15.700Z,2.15
2023-03-24T16:56:43.194Z,2.35
2023-03-24T16:59:12.616Z,2.00
2023-03-24T17:01:46.145Z,2.25
2023-03-24T17:04:22.429Z,3.00
2023-03-24T17:06:55.430Z,2.83
2023-03-24T17:09:23.216Z,1.92
2023-03-24T17:11:58.715Z,1.92
2023-03-24T17:14:26.153Z,2.13
2023-03-24T17:16:53.782Z,1.98
2023-03-24T17:19:23.777Z,2.03
2023-03-24T17:22:03.214Z,2.28
2023-03-24T17:24:36.221Z,3.28
2023-03-24T17:27:05.368Z,3.78
2023-03-24T17:29:32.716Z,5.70
2023-03-24T17:31:59.812Z,6.22
2023-03-24T17:34:27.382Z,7.43
2023-03-24T17:36:57.634Z,9.68
2023-03-24T17:39:25.298Z,10.77
2023-03-24T17:41:54.465Z,8.93
2023-03-24T17:44:22.082Z,11.00
2023-03-24T17:46:49.927Z,9.40
2023-03-24T17:49:18.181Z,5.90
2023-03-24T17:51:46.036Z,6.22
2023-03-24T17:54:14.339Z,5.50
2023-03-24T17:56:42.438Z,3.58
2023-03-24T17:59:30.930Z,3.30
2023-03-24T18:01:59.533Z,2.95
2023-03-24T18:04:30.476Z,3.50
2023-03-24T18:06:59.598Z,3.25
2023-03-24T18:09:29.579Z,3.35
2023-03-24T18:11:57.992Z,3.08
2023-03-24T18:14:28.033Z,3.42
2023-03-24T18:16:56.214Z,3.50
2023-03-24T18:19:31.278Z,4.55
2023-03-24T18:22:00.506Z,4.55
2023-03-24T18:24:28.445Z,4.38
2023-03-24T18:26:58.136Z,4.28
2023-03-24T18:29:26.702Z,3.60
2023-03-24T18:31:56.567Z,3.20
2023-03-24T18:34:24.859Z,3.95
2023-03-24T18:36:53.569Z,3.80
2023-03-24T18:39:22.046Z,4.40
2023-03-24T18:41:51.347Z,5.30
2023-03-24T18:44:22.374Z,5.72
2023-03-24T18:46:51.433Z,4.70
2023-03-24T18:49:20.053Z,5.45
2023-03-24T18:51:48.723Z,5.25
2023-03-24T18:54:17.460Z,5.70
2023-03-24T18:56:47.585Z,5.80
2023-03-24T18:59:17.445Z,5.68
2023-03-24T19:01:49.316Z,7.30
2023-03-24T19:04:27.377Z,8.10
2023-03-24T19:06:56.993Z,8.00
2023-03-24T19:09:26.497Z,9.15
2023-03-24T19:11:54.904Z,9.82
2023-03-24T19:14:25.985Z,11.88
2023-03-24T19:16:57.943Z,11.10
2023-03-24T19:19:28.308Z,10.80
2023-03-24T19:21:56.988Z,10.25
2023-03-24T19:24:27.928Z,10.50
2023-03-24T19:26:58.106Z,11.00
2023-03-24T19:29:27.677Z,9.82
2023-03-24T19:31:56.116Z,8.93
2023-03-24T19:34:24.824Z,8.98
2023-03-24T19:36:57.249Z,10.27
2023-03-24T19:39:27.166Z,9.60
2023-03-24T19:41:58.346Z,7.40
2023-03-24T19:44:27.056Z,6.45
2023-03-24T19:46:56.508Z,8.63
2023-03-24T19:49:24.772Z,7.40
2023-03-24T19:51:53.437Z,10.65
2023-03-24T19:54:22.099Z,10.85
2023-03-24T19:56:54.527Z,8.77
2023-03-24T19:59:22.954Z,7.65
2023-03-24T20:01:51.448Z,7.15
2023-03-24T20:04:20.171Z,8.10
2023-03-24T20:06:48.616Z,7.13
2023-03-24T20:09:17.466Z,5.38
2023-03-24T20:11:46.466Z,7.18
2023-03-24T20:14:16.996Z,6.90
2023-03-24T20:16:48.914Z,6.90
2023-03-24T20:19:18.416Z,9.57
2023-03-24T20:21:48.674Z,7.97
2023-03-24T20:24:17.227Z,7.93
2023-03-24T20:26:48.409Z,7.97
2023-03-24T20:29:17.364Z,8.48
2023-03-24T20:31:47.980Z,7.60
2023-03-24T20:34:20.201Z,6.85
2023-03-24T20:36:52.383Z,7.53
2023-03-24T20:39:23.227Z,6.65
2023-03-24T20:41:51.622Z,7.07
2023-03-24T20:47:02.218Z,7.00
2023-03-24T20:49:33.100Z,5.68
2023-03-24T20:52:02.935Z,5.72
2023-03-24T20:54:33.103Z,6.72
2023-03-24T20:57:02.708Z,6.70
2023-03-24T20:59:31.446Z,6.15
2023-03-24T21:02:04.119Z,4.90
2023-03-24T21:07:01.230Z,6.43
2023-03-24T21:09:29.805Z,5.57
2023-03-24T21:12:00.019Z,5.70
2023-03-24T21:14:30.258Z,5.82
2023-03-24T21:16:59.483Z,5.95
2023-03-24T21:19:30.939Z,5.38
2023-03-24T21:21:59.705Z,6.33
2023-03-24T21:24:28.111Z,6.28
2023-03-24T21:26:57.337Z,6.72
2023-03-24T21:29:27.586Z,7.32
2023-03-24T21:31:55.606Z,5.53
2023-03-24T21:34:23.416Z,5.65
2023-03-24T21:36:53.774Z,5.50
2023-03-24T21:39:22.154Z,7.88
2023-03-24T21:41:50.052Z,13.30
2023-03-24T21:44:19.377Z,12.32
2023-03-24T21:46:48.246Z,10.07
2023-03-24T21:49:19.029Z,10.90
2023-03-24T21:51:49.423Z,8.13
2023-03-24T21:54:19.586Z,7.47
2023-03-24T21:56:48.128Z,7.47
2023-03-24T21:59:18.554Z,8.27
2023-03-24T22:01:46.184Z,8.43
2023-03-24T22:04:15.406Z,8.13
2023-03-24T22:06:42.925Z,6.18
2023-03-24T22:09:10.610Z,6.70
2023-03-24T22:11:42.935Z,6.65
2023-03-24T22:14:10.607Z,6.72
2023-03-24T22:16:38.368Z,7.45
2023-03-24T22:19:05.872Z,7.95
2023-03-24T22:21:33.534Z,10.10
2023-03-24T22:24:00.925Z,10.95
2023-03-24T22:26:28.397Z,10.90
2023-03-24T22:28:56.390Z,9.90
2023-03-24T22:31:24.784Z,9.38
2023-03-24T22:33:52.410Z,8.90
2023-03-24T22:36:19.840Z,8.05
2023-03-24T22:38:50.005Z,8.95
2023-03-24T22:41:17.549Z,8.40
2023-03-24T22:43:44.896Z,8.57
2023-03-24T22:46:13.537Z,9.07
2023-03-24T22:48:40.996Z,7.53
2023-03-24T22:51:09.446Z,6.80
2023-03-24T22:53:40.831Z,6.72
2023-03-24T22:56:09.229Z,6.85
2023-03-24T22:58:36.679Z,5.88
2023-03-24T23:01:04.925Z,5.10
2023-03-24T23:03:32.790Z,5.53
2023-03-24T23:06:04.892Z,5.68
2023-03-24T23:08:33.847Z,4.85
2023-03-24T23:11:01.644Z,4.15
2023-03-24T23:13:30.945Z,4.82
2023-03-24T23:15:58.310Z,5.30
2023-03-24T23:18:25.704Z,4.90
2023-03-24T23:21:03.037Z,4.50
2023-03-24T23:23:30.636Z,4.75
2023-03-24T23:25:58.053Z,4.93
2023-03-24T23:28:25.553Z,4.20
2023-03-24T23:30:54.296Z,5.07
2023-03-24T23:33:22.502Z,4.95
2023-03-24T23:35:57.856Z,5.97
2023-03-24T23:38:25.374Z,7.93
2023-03-24T23:40:52.752Z,7.32
2023-03-24T23:43:20.308Z,5.28
2023-03-24T23:45:48.016Z,6.10
2023-03-24T23:48:15.726Z,5.38
2023-03-24T23:50:46.485Z,5.38
2023-03-24T23:53:13.913Z,5.15
2023-03-24T23:55:41.916Z,5.82
2023-03-24T23:58:09.534Z,4.93
